createdAt,value
2022-09-29T00:37:59.657Z,89.5
2022-09-29T00:59:30.173Z,90.0
2022-09-29T01:37:59.669Z,90.0
2022-09-29T02:19:30.189Z,90.0
2022-09-29T02:37:59.676Z,90.0
2022-09-29T02:58:48.100Z,90.5
2022-09-29T03:39:30.201Z,90.5
2022-09-29T03:57:59.695Z,90.0
2022-09-29T04:39:30.213Z,90.5
2022-09-29T04:58:44.963Z,90.0
2022-09-29T05:17:59.718Z,90.5
2022-09-29T05:38:45.111Z,90.0
2022-09-29T05:59:30.237Z,90.5
2022-09-29T06:17:59.730Z,90.0
2022-09-29T07:37:59.766Z,90.5
2022-09-29T07:57:59.780Z,89.5
2022-09-29T08:19:30.191Z,89.5
2022-09-29T08:39:30.198Z,89.5
2022-09-29T08:58:44.959Z,89.5
2022-09-29T09:17:59.715Z,87.5
2022-09-29T09:37:59.725Z,87.0
2022-09-29T09:57:59.737Z,85.5
2022-09-29T10:17:59.753Z,84.5
2022-09-29T10:37:59.752Z,83.0
2022-09-29T10:57:59.763Z,81.0
2022-09-29T11:17:59.862Z,79.0
2022-09-29T11:37:59.779Z,75.0
2022-09-29T11:57:59.794Z,73.0
2022-09-29T12:17:59.798Z,73.0
2022-09-29T12:37:59.804Z,72.5
2022-09-29T12:57:59.818Z,69.0
2022-09-29T13:17:59.826Z,67.0
2022-09-29T13:37:59.838Z,65.5
2022-09-29T13:57:59.851Z,63.0
2022-09-29T14:17:59.853Z,62.0
2022-09-29T14:37:59.871Z,60.0
2022-09-29T14:57:59.868Z,61.0
2022-09-29T15:17:59.873Z,61.5
2022-09-29T15:37:59.874Z,63.0
2022-09-29T15:57:59.890Z,62.0
2022-09-29T16:17:59.887Z,62.5
2022-09-29T16:37:59.903Z,64.5
2022-09-29T16:57:59.893Z,66.0
2022-09-29T17:17:59.901Z,67.5
2022-09-29T17:37:59.922Z,69.5
2022-09-29T17:57:59.904Z,70.5
2022-09-29T18:37:59.916Z,73.0
2022-09-29T18:57:59.917Z,74.0
2022-09-29T20:37:59.942Z,77.0
2022-09-29T21:18:00.058Z,78.0
2022-09-29T23:38:00.123Z,80.5
